sensor_id;sensor_type;location;lat;lon;timestamp;P1;durP1;ratioP1;P2;durP2;ratioP2
75698;SDS011;64313;51.018;13.742;2024-01-30T00:00:02;21.73;;;10.30;;
75698;SDS011;64313;51.018;13.742;2024-01-30T00:02:30;24.42;;;10.50;;
75698;SDS011;64313;51.018;13.742;2024-01-30T00:04:55;20.30;;;10.48;;
75698;SDS011;64313;51.018;13.742;2024-01-30T00:07:21;21.60;;;10.45;;
75698;SDS011;64313;51.018;13.742;2024-01-30T00:09:46;23.45;;;10.45;;
75698;SDS011;64313;51.018;13.742;2024-01-30T00:12:13;21.70;;;10.45;;
75698;SDS011;64313;51.018;13.742;2024-01-30T00:14:38;21.75;;;10.68;;
75698;SDS011;64313;51.018;13.742;2024-01-30T00:17:03;22.88;;;10.73;;
75698;SDS011;64313;51.018;13.742;2024-01-30T00:19:29;24.63;;;11.38;;
75698;SDS011;64313;51.018;13.742;2024-01-30T00:21:54;24.33;;;10.32;;
75698;SDS011;64313;51.018;13.742;2024-01-30T00:24:19;23.60;;;10.50;;
75698;SDS011;64313;51.018;13.742;2024-01-30T00:26:45;23.98;;;10.45;;
75698;SDS011;64313;51.018;13.742;2024-01-30T00:29:10;24.20;;;11.07;;
75698;SDS011;64313;51.018;13.742;2024-01-30T00:31:35;22.55;;;10.55;;
75698;SDS011;64313;51.018;13.742;2024-01-30T00:34:01;23.48;;;10.40;;
75698;SDS011;64313;51.018;13.742;2024-01-30T00:36:26;21.42;;;10.63;;
75698;SDS011;64313;51.018;13.742;2024-01-30T00:38:54;25.08;;;10.13;;
75698;SDS011;64313;51.018;13.742;2024-01-30T00:41:20;22.70;;;10.57;;
75698;SDS011;64313;51.018;13.742;2024-01-30T00:43:45;22.45;;;10.23;;
75698;SDS011;64313;51.018;13.742;2024-01-30T00:46:10;21.95;;;10.57;;
75698;SDS011;64313;51.018;13.742;2024-01-30T00:51:01;23.90;;;10.40;;
75698;SDS011;64313;51.018;13.742;2024-01-30T00:53:26;19.17;;;9.52;;
75698;SDS011;64313;51.018;13.742;2024-01-30T00:55:51;19.65;;;9.60;;
75698;SDS011;64313;51.018;13.742;2024-01-30T00:58:17;18.85;;;9.43;;
75698;SDS011;64313;51.018;13.742;2024-01-30T01:00:44;22.45;;;9.68;;
75698;SDS011;64313;51.018;13.742;2024-01-30T01:03:09;21.77;;;9.95;;
75698;SDS011;64313;51.018;13.742;2024-01-30T01:05:34;24.23;;;9.82;;
75698;SDS011;64313;51.018;13.742;2024-01-30T01:08:00;19.88;;;9.45;;
75698;SDS011;64313;51.018;13.742;2024-01-30T01:10:25;22.33;;;9.98;;
75698;SDS011;64313;51.018;13.742;2024-01-30T01:12:52;23.10;;;9.50;;
75698;SDS011;64313;51.018;13.742;2024-01-30T01:15:17;20.88;;;9.18;;
75698;SDS011;64313;51.018;13.742;2024-01-30T01:17:43;19.30;;;9.38;;
75698;SDS011;64313;51.018;13.742;2024-01-30T01:20:08;17.13;;;9.07;;
75698;SDS011;64313;51.018;13.742;2024-01-30T01:22:35;19.40;;;9.15;;
75698;SDS011;64313;51.018;13.742;2024-01-30T01:25:00;21.75;;;9.40;;
75698;SDS011;64313;51.018;13.742;2024-01-30T01:27:26;21.23;;;9.60;;
75698;SDS011;64313;51.018;13.742;2024-01-30T01:29:52;19.27;;;9.32;;
75698;SDS011;64313;51.018;13.742;2024-01-30T01:32:17;19.50;;;9.43;;
75698;SDS011;64313;51.018;13.742;2024-01-30T01:34:43;17.77;;;8.90;;
75698;SDS011;64313;51.018;13.742;2024-01-30T01:37:08;20.35;;;9.55;;
75698;SDS011;64313;51.018;13.742;2024-01-30T01:39:33;19.67;;;8.98;;
75698;SDS011;64313;51.018;13.742;2024-01-30T01:44:24;19.00;;;8.93;;
75698;SDS011;64313;51.018;13.742;2024-01-30T01:49:16;18.00;;;8.80;;
75698;SDS011;64313;51.018;13.742;2024-01-30T01:54:07;21.42;;;8.65;;
75698;SDS011;64313;51.018;13.742;2024-01-30T01:59:00;20.45;;;8.60;;
75698;SDS011;64313;51.018;13.742;2024-01-30T02:01:29;17.98;;;8.57;;
75698;SDS011;64313;51.018;13.742;2024-01-30T02:03:57;16.60;;;8.27;;
75698;SDS011;64313;51.018;13.742;2024-01-30T02:06:23;18.67;;;8.60;;
75698;SDS011;64313;51.018;13.742;2024-01-30T02:08:49;17.88;;;8.93;;
75698;SDS011;64313;51.018;13.742;2024-01-30T02:11:14;19.50;;;9.07;;
75698;SDS011;64313;51.018;13.742;2024-01-30T02:13:41;18.98;;;8.57;;
75698;SDS011;64313;51.018;13.742;2024-01-30T02:16:07;19.73;;;8.65;;
75698;SDS011;64313;51.018;13.742;2024-01-30T02:18:32;20.67;;;9.13;;
75698;SDS011;64313;51.018;13.742;2024-01-30T02:20:58;19.98;;;8.48;;
75698;SDS011;64313;51.018;13.742;2024-01-30T02:23:26;20.13;;;8.73;;
75698;SDS011;64313;51.018;13.742;2024-01-30T02:25:52;17.42;;;8.40;;
75698;SDS011;64313;51.018;13.742;2024-01-30T02:28:18;20.25;;;8.98;;
75698;SDS011;64313;51.018;13.742;2024-01-30T02:30:44;18.38;;;8.15;;
75698;SDS011;64313;51.018;13.742;2024-01-30T02:33:10;19.40;;;8.73;;
75698;SDS011;64313;51.018;13.742;2024-01-30T02:35:35;18.60;;;8.85;;
75698;SDS011;64313;51.018;13.742;2024-01-30T02:38:00;17.60;;;8.60;;
75698;SDS011;64313;51.018;13.742;2024-01-30T02:40:26;20.65;;;9.30;;
75698;SDS011;64313;51.018;13.742;2024-01-30T02:42:51;19.65;;;9.30;;
75698;SDS011;64313;51.018;13.742;2024-01-30T02:45:17;20.75;;;9.45;;
75698;SDS011;64313;51.018;13.742;2024-01-30T02:47:42;22.58;;;9.50;;
75698;SDS011;64313;51.018;13.742;2024-01-30T02:50:07;20.75;;;9.13;;
75698;SDS011;64313;51.018;13.742;2024-01-30T02:52:33;18.25;;;8.60;;
75698;SDS011;64313;51.018;13.742;2024-01-30T02:54:59;20.25;;;9.07;;
75698;SDS011;64313;51.018;13.742;2024-01-30T02:57:24;18.58;;;9.02;;
75698;SDS011;64313;51.018;13.742;2024-01-30T02:59:49;17.20;;;8.57;;
75698;SDS011;64313;51.018;13.742;2024-01-30T03:02:15;21.17;;;8.88;;
75698;SDS011;64313;51.018;13.742;2024-01-30T03:04:41;20.05;;;9.15;;
75698;SDS011;64313;51.018;13.742;2024-01-30T03:07:07;18.40;;;8.98;;
75698;SDS011;64313;51.018;13.742;2024-01-30T03:09:32;19.63;;;8.88;;
75698;SDS011;64313;51.018;13.742;2024-01-30T03:11:58;22.60;;;8.85;;
75698;SDS011;64313;51.018;13.742;2024-01-30T03:14:23;18.98;;;9.20;;
75698;SDS011;64313;51.018;13.742;2024-01-30T03:16:48;18.42;;;8.98;;
75698;SDS011;64313;51.018;13.742;2024-01-30T03:19:14;22.45;;;9.52;;
75698;SDS011;64313;51.018;13.742;2024-01-30T03:21:39;18.60;;;8.68;;
75698;SDS011;64313;51.018;13.742;2024-01-30T03:24:04;20.20;;;8.20;;
75698;SDS011;64313;51.018;13.742;2024-01-30T03:26:30;19.80;;;9.15;;
75698;SDS011;64313;51.018;13.742;2024-01-30T03:28:55;17.48;;;8.80;;
75698;SDS011;64313;51.018;13.742;2024-01-30T03:31:21;22.15;;;9.27;;
75698;SDS011;64313;51.018;13.742;2024-01-30T03:33:46;21.83;;;9.25;;
75698;SDS011;64313;51.018;13.742;2024-01-30T03:36:11;19.45;;;8.77;;
75698;SDS011;64313;51.018;13.742;2024-01-30T03:38:37;22.20;;;8.60;;
75698;SDS011;64313;51.018;13.742;2024-01-30T03:41:02;17.98;;;8.73;;
75698;SDS011;64313;51.018;13.742;2024-01-30T03:43:27;18.17;;;8.45;;
75698;SDS011;64313;51.018;13.742;2024-01-30T03:45:53;19.25;;;8.93;;
75698;SDS011;64313;51.018;13.742;2024-01-30T03:48:18;20.48;;;9.10;;
75698;SDS011;64313;51.018;13.742;2024-01-30T03:50:45;18.23;;;8.65;;
75698;SDS011;64313;51.018;13.742;2024-01-30T03:53:10;19.25;;;9.10;;
75698;SDS011;64313;51.018;13.742;2024-01-30T03:55:35;17.08;;;8.55;;
75698;SDS011;64313;51.018;13.742;2024-01-30T03:58:01;18.80;;;9.25;;
75698;SDS011;64313;51.018;13.742;2024-01-30T04:00:26;21.88;;;9.63;;
75698;SDS011;64313;51.018;13.742;2024-01-30T04:02:51;20.70;;;9.60;;
75698;SDS011;64313;51.018;13.742;2024-01-30T04:05:17;20.52;;;8.88;;
75698;SDS011;64313;51.018;13.742;2024-01-30T04:07:42;19.50;;;9.07;;
75698;SDS011;64313;51.018;13.742;2024-01-30T04:10:08;21.92;;;9.82;;
75698;SDS011;64313;51.018;13.742;2024-01-30T04:12:34;22.98;;;9.18;;
75698;SDS011;64313;51.018;13.742;2024-01-30T04:15:00;21.20;;;8.90;;
75698;SDS011;64313;51.018;13.742;2024-01-30T04:17:25;19.38;;;9.15;;
75698;SDS011;64313;51.018;13.742;2024-01-30T04:19:50;19.88;;;9.55;;
75698;SDS011;64313;51.018;13.742;2024-01-30T04:22:16;21.35;;;9.05;;
75698;SDS011;64313;51.018;13.742;2024-01-30T04:24:41;21.17;;;9.77;;
75698;SDS011;64313;51.018;13.742;2024-01-30T04:27:06;21.15;;;9.73;;
75698;SDS011;64313;51.018;13.742;2024-01-30T04:29:32;20.90;;;9.30;;
75698;SDS011;64313;51.018;13.742;2024-01-30T04:31:59;23.52;;;8.93;;
75698;SDS011;64313;51.018;13.742;2024-01-30T04:34:24;20.65;;;8.98;;
75698;SDS011;64313;51.018;13.742;2024-01-30T04:36:50;20.00;;;8.77;;
75698;SDS011;64313;51.018;13.742;2024-01-30T04:39:15;22.33;;;9.48;;
75698;SDS011;64313;51.018;13.742;2024-01-30T04:41:40;21.60;;;9.25;;
75698;SDS011;64313;51.018;13.742;2024-01-30T04:44:06;17.17;;;8.52;;
75698;SDS011;64313;51.018;13.742;2024-01-30T04:46:31;23.13;;;9.27;;
75698;SDS011;64313;51.018;13.742;2024-01-30T04:48:59;23.52;;;9.55;;
75698;SDS011;64313;51.018;13.742;2024-01-30T04:51:24;20.50;;;9.00;;
75698;SDS011;64313;51.018;13.742;2024-01-30T04:53:49;24.20;;;9.48;;
75698;SDS011;64313;51.018;13.742;2024-01-30T04:56:15;20.20;;;7.93;;
75698;SDS011;64313;51.018;13.742;2024-01-30T04:58:40;20.73;;;9.05;;
75698;SDS011;64313;51.018;13.742;2024-01-30T05:01:05;18.30;;;8.57;;
75698;SDS011;64313;51.018;13.742;2024-01-30T05:03:33;20.52;;;9.10;;
75698;SDS011;64313;51.018;13.742;2024-01-30T05:05:59;23.17;;;9.43;;
75698;SDS011;64313;51.018;13.742;2024-01-30T05:08:24;21.67;;;9.75;;
75698;SDS011;64313;51.018;13.742;2024-01-30T05:10:50;18.52;;;9.10;;
75698;SDS011;64313;51.018;13.742;2024-01-30T05:13:15;19.33;;;9.35;;
75698;SDS011;64313;51.018;13.742;2024-01-30T05:19:28;18.58;;;9.18;;
75698;SDS011;64313;51.018;13.742;2024-01-30T05:21:53;20.13;;;9.27;;
75698;SDS011;64313;51.018;13.742;2024-01-30T05:24:19;23.65;;;9.65;;
75698;SDS011;64313;51.018;13.742;2024-01-30T05:26:44;23.15;;;9.90;;
75698;SDS011;64313;51.018;13.742;2024-01-30T05:29:09;20.77;;;9.38;;
75698;SDS011;64313;51.018;13.742;2024-01-30T05:31:35;19.33;;;8.80;;
75698;SDS011;64313;51.018;13.742;2024-01-30T05:34:00;21.27;;;10.00;;
75698;SDS011;64313;51.018;13.742;2024-01-30T05:36:26;20.05;;;8.43;;
75698;SDS011;64313;51.018;13.742;2024-01-30T05:38:51;19.10;;;8.85;;
75698;SDS011;64313;51.018;13.742;2024-01-30T05:41:17;22.73;;;9.43;;
75698;SDS011;64313;51.018;13.742;2024-01-30T05:43:43;19.05;;;8.65;;
75698;SDS011;64313;51.018;13.742;2024-01-30T05:46:08;21.23;;;9.20;;
75698;SDS011;64313;51.018;13.742;2024-01-30T05:48:34;20.92;;;9.00;;
75698;SDS011;64313;51.018;13.742;2024-01-30T05:51:00;23.35;;;9.30;;
75698;SDS011;64313;51.018;13.742;2024-01-30T05:53:26;23.77;;;9.60;;
75698;SDS011;64313;51.018;13.742;2024-01-30T05:55:51;16.38;;;8.35;;
75698;SDS011;64313;51.018;13.742;2024-01-30T05:58:17;19.65;;;9.00;;
75698;SDS011;64313;51.018;13.742;2024-01-30T06:00:42;18.90;;;9.13;;
75698;SDS011;64313;51.018;13.742;2024-01-30T06:03:07;21.10;;;9.40;;
75698;SDS011;64313;51.018;13.742;2024-01-30T06:05:33;20.63;;;9.32;;
75698;SDS011;64313;51.018;13.742;2024-01-30T06:07:58;22.05;;;9.65;;
75698;SDS011;64313;51.018;13.742;2024-01-30T06:10:23;18.20;;;8.95;;
75698;SDS011;64313;51.018;13.742;2024-01-30T06:12:48;22.48;;;9.52;;
75698;SDS011;64313;51.018;13.742;2024-01-30T06:15:14;18.35;;;8.75;;
75698;SDS011;64313;51.018;13.742;2024-01-30T06:17:39;18.20;;;8.68;;
75698;SDS011;64313;51.018;13.742;2024-01-30T06:20:05;18.92;;;9.05;;
75698;SDS011;64313;51.018;13.742;2024-01-30T06:24:56;20.48;;;9.00;;
75698;SDS011;64313;51.018;13.742;2024-01-30T06:27:21;22.80;;;9.07;;
75698;SDS011;64313;51.018;13.742;2024-01-30T06:29:47;21.38;;;8.77;;
75698;SDS011;64313;51.018;13.742;2024-01-30T06:32:12;18.10;;;8.57;;
75698;SDS011;64313;51.018;13.742;2024-01-30T06:34:37;23.20;;;9.18;;
75698;SDS011;64313;51.018;13.742;2024-01-30T06:37:04;20.42;;;8.65;;
75698;SDS011;64313;51.018;13.742;2024-01-30T06:39:30;23.88;;;8.25;;
75698;SDS011;64313;51.018;13.742;2024-01-30T06:41:55;17.75;;;8.25;;
75698;SDS011;64313;51.018;13.742;2024-01-30T06:44:21;16.58;;;8.57;;
75698;SDS011;64313;51.018;13.742;2024-01-30T06:46:46;17.77;;;8.27;;
75698;SDS011;64313;51.018;13.742;2024-01-30T06:49:11;20.25;;;9.80;;
75698;SDS011;64313;51.018;13.742;2024-01-30T06:51:37;19.80;;;8.88;;
75698;SDS011;64313;51.018;13.742;2024-01-30T06:54:02;16.13;;;8.40;;
75698;SDS011;64313;51.018;13.742;2024-01-30T06:56:27;18.58;;;8.75;;
75698;SDS011;64313;51.018;13.742;2024-01-30T06:58:53;19.10;;;8.55;;
75698;SDS011;64313;51.018;13.742;2024-01-30T07:01:18;18.90;;;8.43;;
75698;SDS011;64313;51.018;13.742;2024-01-30T07:03:43;21.75;;;8.38;;
75698;SDS011;64313;51.018;13.742;2024-01-30T07:06:09;19.67;;;8.52;;
75698;SDS011;64313;51.018;13.742;2024-01-30T07:08:38;19.33;;;7.88;;
75698;SDS011;64313;51.018;13.742;2024-01-30T07:11:04;19.85;;;8.63;;
75698;SDS011;64313;51.018;13.742;2024-01-30T07:13:30;18.30;;;8.07;;
75698;SDS011;64313;51.018;13.742;2024-01-30T07:15:56;17.00;;;8.48;;
75698;SDS011;64313;51.018;13.742;2024-01-30T07:18:21;19.80;;;8.88;;
75698;SDS011;64313;51.018;13.742;2024-01-30T07:20:46;19.48;;;8.43;;
75698;SDS011;64313;51.018;13.742;2024-01-30T07:23:12;19.58;;;8.25;;
75698;SDS011;64313;51.018;13.742;2024-01-30T07:25:40;20.92;;;8.68;;
75698;SDS011;64313;51.018;13.742;2024-01-30T07:28:07;17.48;;;7.47;;
75698;SDS011;64313;51.018;13.742;2024-01-30T07:30:34;17.73;;;8.57;;
75698;SDS011;64313;51.018;13.742;2024-01-30T07:32:59;18.00;;;8.48;;
75698;SDS011;64313;51.018;13.742;2024-01-30T07:35:25;17.30;;;8.35;;
75698;SDS011;64313;51.018;13.742;2024-01-30T07:37:50;15.93;;;7.82;;
75698;SDS011;64313;51.018;13.742;2024-01-30T07:40:15;15.55;;;7.38;;
75698;SDS011;64313;51.018;13.742;2024-01-30T07:42:41;16.92;;;7.93;;
75698;SDS011;64313;51.018;13.742;2024-01-30T07:45:07;18.05;;;8.15;;
75698;SDS011;64313;51.018;13.742;2024-01-30T07:47:32;18.40;;;8.93;;
75698;SDS011;64313;51.018;13.742;2024-01-30T07:49:57;17.55;;;8.52;;
75698;SDS011;64313;51.018;13.742;2024-01-30T07:52:23;17.25;;;8.02;;
75698;SDS011;64313;51.018;13.742;2024-01-30T07:54:48;19.85;;;8.80;;
75698;SDS011;64313;51.018;13.742;2024-01-30T07:57:14;18.50;;;8.90;;
75698;SDS011;64313;51.018;13.742;2024-01-30T07:59:41;19.70;;;9.45;;
75698;SDS011;64313;51.018;13.742;2024-01-30T08:02:07;19.30;;;8.43;;
75698;SDS011;64313;51.018;13.742;2024-01-30T08:04:33;18.75;;;7.90;;
75698;SDS011;64313;51.018;13.742;2024-01-30T08:06:58;17.90;;;8.60;;
75698;SDS011;64313;51.018;13.742;2024-01-30T08:09:23;18.15;;;8.52;;
75698;SDS011;64313;51.018;13.742;2024-01-30T08:11:49;18.17;;;8.95;;
75698;SDS011;64313;51.018;13.742;2024-01-30T08:14:14;17.45;;;8.10;;
75698;SDS011;64313;51.018;13.742;2024-01-30T08:16:39;16.48;;;8.10;;
75698;SDS011;64313;51.018;13.742;2024-01-30T08:19:04;16.75;;;8.45;;
75698;SDS011;64313;51.018;13.742;2024-01-30T08:21:30;19.05;;;8.68;;
75698;SDS011;64313;51.018;13.742;2024-01-30T08:23:55;16.55;;;8.23;;
75698;SDS011;64313;51.018;13.742;2024-01-30T08:26:20;17.35;;;8.43;;
75698;SDS011;64313;51.018;13.742;2024-01-30T08:28:46;17.08;;;7.82;;
75698;SDS011;64313;51.018;13.742;2024-01-30T08:31:11;17.25;;;7.72;;
75698;SDS011;64313;51.018;13.742;2024-01-30T08:33:39;17.70;;;9.13;;
75698;SDS011;64313;51.018;13.742;2024-01-30T08:36:04;19.77;;;7.82;;
75698;SDS011;64313;51.018;13.742;2024-01-30T08:38:30;19.48;;;8.18;;
75698;SDS011;64313;51.018;13.742;2024-01-30T08:40:55;16.92;;;7.30;;
75698;SDS011;64313;51.018;13.742;2024-01-30T08:43:21;15.55;;;7.75;;
75698;SDS011;64313;51.018;13.742;2024-01-30T08:45:46;14.90;;;7.93;;
75698;SDS011;64313;51.018;13.742;2024-01-30T08:48:11;18.92;;;7.95;;
75698;SDS011;64313;51.018;13.742;2024-01-30T08:50:37;18.05;;;8.05;;
75698;SDS011;64313;51.018;13.742;2024-01-30T08:53:02;16.92;;;8.50;;
75698;SDS011;64313;51.018;13.742;2024-01-30T08:55:27;17.52;;;7.97;;
75698;SDS011;64313;51.018;13.742;2024-01-30T08:57:53;17.25;;;8.15;;
75698;SDS011;64313;51.018;13.742;2024-01-30T09:00:18;12.43;;;6.47;;
75698;SDS011;64313;51.018;13.742;2024-01-30T09:02:44;15.77;;;7.75;;
75698;SDS011;64313;51.018;13.742;2024-01-30T09:05:09;15.02;;;7.30;;
75698;SDS011;64313;51.018;13.742;2024-01-30T09:07:35;14.82;;;6.78;;
75698;SDS011;64313;51.018;13.742;2024-01-30T09:10:00;16.38;;;8.20;;
75698;SDS011;64313;51.018;13.742;2024-01-30T09:12:26;16.77;;;7.45;;
75698;SDS011;64313;51.018;13.742;2024-01-30T09:14:51;14.30;;;7.43;;
75698;SDS011;64313;51.018;13.742;2024-01-30T09:17:16;13.90;;;7.70;;
75698;SDS011;64313;51.018;13.742;2024-01-30T09:19:42;16.00;;;7.40;;
75698;SDS011;64313;51.018;13.742;2024-01-30T09:22:07;12.73;;;7.15;;
75698;SDS011;64313;51.018;13.742;2024-01-30T09:24:32;14.88;;;7.07;;
75698;SDS011;64313;51.018;13.742;2024-01-30T09:26:58;16.20;;;7.30;;
75698;SDS011;64313;51.018;13.742;2024-01-30T09:29:23;16.17;;;7.60;;
75698;SDS011;64313;51.018;13.742;2024-01-30T09:31:49;15.05;;;6.82;;
75698;SDS011;64313;51.018;13.742;2024-01-30T09:34:14;17.73;;;7.80;;
75698;SDS011;64313;51.018;13.742;2024-01-30T09:36:39;16.83;;;8.18;;
75698;SDS011;64313;51.018;13.742;2024-01-30T09:39:05;16.42;;;6.97;;
75698;SDS011;64313;51.018;13.742;2024-01-30T09:41:32;16.65;;;8.02;;
75698;SDS011;64313;51.018;13.742;2024-01-30T09:43:58;18.20;;;7.70;;
75698;SDS011;64313;51.018;13.742;2024-01-30T09:48:52;17.98;;;7.90;;
75698;SDS011;64313;51.018;13.742;2024-01-30T09:51:20;15.00;;;7.03;;
75698;SDS011;64313;51.018;13.742;2024-01-30T09:53:46;13.60;;;6.50;;
75698;SDS011;64313;51.018;13.742;2024-01-30T09:58:38;16.27;;;7.53;;
75698;SDS011;64313;51.018;13.742;2024-01-30T10:01:04;14.00;;;7.13;;
75698;SDS011;64313;51.018;13.742;2024-01-30T10:05:55;16.33;;;7.00;;
75698;SDS011;64313;51.018;13.742;2024-01-30T10:10:47;15.40;;;6.57;;
75698;SDS011;64313;51.018;13.742;2024-01-30T10:13:12;15.18;;;6.93;;
75698;SDS011;64313;51.018;13.742;2024-01-30T10:18:04;12.43;;;6.13;;
75698;SDS011;64313;51.018;13.742;2024-01-30T10:20:31;13.05;;;6.78;;
75698;SDS011;64313;51.018;13.742;2024-01-30T10:22:57;12.82;;;6.35;;
75698;SDS011;64313;51.018;13.742;2024-01-30T10:25:22;15.25;;;6.78;;
75698;SDS011;64313;51.018;13.742;2024-01-30T10:27:52;16.50;;;7.47;;
75698;SDS011;64313;51.018;13.742;2024-01-30T10:30:19;14.90;;;7.20;;
75698;SDS011;64313;51.018;13.742;2024-01-30T10:35:09;14.73;;;6.77;;
75698;SDS011;64313;51.018;13.742;2024-01-30T10:40:02;15.20;;;6.40;;
75698;SDS011;64313;51.018;13.742;2024-01-30T10:42:32;14.07;;;7.07;;
75698;SDS011;64313;51.018;13.742;2024-01-30T10:45:00;14.75;;;7.22;;
75698;SDS011;64313;51.018;13.742;2024-01-30T10:47:35;13.50;;;6.28;;
75698;SDS011;64313;51.018;13.742;2024-01-30T10:50:04;16.77;;;6.75;;
75698;SDS011;64313;51.018;13.742;2024-01-30T10:52:30;14.90;;;6.88;;
75698;SDS011;64313;51.018;13.742;2024-01-30T10:54:56;13.50;;;7.03;;
75698;SDS011;64313;51.018;13.742;2024-01-30T10:57:23;15.38;;;7.00;;
75698;SDS011;64313;51.018;13.742;2024-01-30T10:59:49;14.23;;;6.85;;
75698;SDS011;64313;51.018;13.742;2024-01-30T11:02:17;15.60;;;7.05;;
75698;SDS011;64313;51.018;13.742;2024-01-30T11:07:13;14.55;;;7.10;;
75698;SDS011;64313;51.018;13.742;2024-01-30T11:09:49;13.93;;;7.35;;
75698;SDS011;64313;51.018;13.742;2024-01-30T11:12:16;15.45;;;7.18;;
75698;SDS011;64313;51.018;13.742;2024-01-30T11:17:06;15.43;;;6.47;;
75698;SDS011;64313;51.018;13.742;2024-01-30T11:19:32;14.25;;;7.05;;
75698;SDS011;64313;51.018;13.742;2024-01-30T11:21:58;13.90;;;6.80;;
75698;SDS011;64313;51.018;13.742;2024-01-30T11:24:24;15.98;;;7.85;;
75698;SDS011;64313;51.018;13.742;2024-01-30T11:29:24;13.43;;;6.10;;
75698;SDS011;64313;51.018;13.742;2024-01-30T11:31:58;16.05;;;7.85;;
75698;SDS011;64313;51.018;13.742;2024-01-30T11:34:24;16.85;;;7.18;;
75698;SDS011;64313;51.018;13.742;2024-01-30T11:39:23;13.65;;;6.63;;
75698;SDS011;64313;51.018;13.742;2024-01-30T11:41:50;16.60;;;8.18;;
75698;SDS011;64313;51.018;13.742;2024-01-30T11:44:17;12.98;;;6.20;;
75698;SDS011;64313;51.018;13.742;2024-01-30T11:49:08;16.08;;;7.45;;
75698;SDS011;64313;51.018;13.742;2024-01-30T11:53:58;14.70;;;7.33;;
75698;SDS011;64313;51.018;13.742;2024-01-30T11:56:24;16.92;;;7.20;;
75698;SDS011;64313;51.018;13.742;2024-01-30T11:58:50;17.08;;;7.38;;
75698;SDS011;64313;51.018;13.742;2024-01-30T12:01:17;19.10;;;7.38;;
75698;SDS011;64313;51.018;13.742;2024-01-30T12:06:07;15.95;;;7.72;;
75698;SDS011;64313;51.018;13.742;2024-01-30T12:10:58;14.90;;;7.38;;
75698;SDS011;64313;51.018;13.742;2024-01-30T12:13:24;15.05;;;6.60;;
75698;SDS011;64313;51.018;13.742;2024-01-30T12:15:51;15.70;;;8.40;;
75698;SDS011;64313;51.018;13.742;2024-01-30T12:20:43;16.67;;;8.23;;
75698;SDS011;64313;51.018;13.742;2024-01-30T12:23:11;19.77;;;8.02;;
75698;SDS011;64313;51.018;13.742;2024-01-30T12:25:37;17.48;;;7.88;;
75698;SDS011;64313;51.018;13.742;2024-01-30T12:30:28;16.48;;;7.22;;
75698;SDS011;64313;51.018;13.742;2024-01-30T12:32:54;15.57;;;7.78;;
75698;SDS011;64313;51.018;13.742;2024-01-30T12:37:46;16.50;;;7.80;;
75698;SDS011;64313;51.018;13.742;2024-01-30T12:40:13;19.27;;;8.02;;
75698;SDS011;64313;51.018;13.742;2024-01-30T12:42:40;15.27;;;7.22;;
75698;SDS011;64313;51.018;13.742;2024-01-30T12:45:07;15.70;;;8.15;;
75698;SDS011;64313;51.018;13.742;2024-01-30T12:49:58;15.35;;;7.60;;
75698;SDS011;64313;51.018;13.742;2024-01-30T12:54:49;15.73;;;7.28;;
75698;SDS011;64313;51.018;13.742;2024-01-30T12:59:41;15.95;;;7.57;;
75698;SDS011;64313;51.018;13.742;2024-01-30T13:04:32;18.23;;;7.68;;
75698;SDS011;64313;51.018;13.742;2024-01-30T13:09:23;15.57;;;7.15;;
75698;SDS011;64313;51.018;13.742;2024-01-30T13:11:49;15.55;;;7.18;;
75698;SDS011;64313;51.018;13.742;2024-01-30T13:14:16;18.73;;;8.77;;
75698;SDS011;64313;51.018;13.742;2024-01-30T13:19:06;16.77;;;7.73;;
75698;SDS011;64313;51.018;13.742;2024-01-30T13:21:32;17.63;;;8.05;;
75698;SDS011;64313;51.018;13.742;2024-01-30T13:26:22;17.53;;;8.10;;
75698;SDS011;64313;51.018;13.742;2024-01-30T13:31:16;16.63;;;8.27;;
75698;SDS011;64313;51.018;13.742;2024-01-30T13:33:42;16.58;;;8.10;;
75698;SDS011;64313;51.018;13.742;2024-01-30T13:38:34;16.58;;;7.97;;
75698;SDS011;64313;51.018;13.742;2024-01-30T13:43:25;18.08;;;8.35;;
75698;SDS011;64313;51.018;13.742;2024-01-30T13:48:15;16.77;;;7.50;;
75698;SDS011;64313;51.018;13.742;2024-01-30T13:53:06;17.60;;;8.43;;
75698;SDS011;64313;51.018;13.742;2024-01-30T13:55:31;21.98;;;9.45;;
75698;SDS011;64313;51.018;13.742;2024-01-30T14:00:22;19.70;;;7.90;;
75698;SDS011;64313;51.018;13.742;2024-01-30T14:02:48;20.48;;;8.18;;
75698;SDS011;64313;51.018;13.742;2024-01-30T14:05:13;19.65;;;8.88;;
75698;SDS011;64313;51.018;13.742;2024-01-30T14:10:05;18.75;;;8.23;;
75698;SDS011;64313;51.018;13.742;2024-01-30T14:12:31;18.25;;;8.10;;
75698;SDS011;64313;51.018;13.742;2024-01-30T14:14:56;15.77;;;7.90;;
75698;SDS011;64313;51.018;13.742;2024-01-30T14:19:47;16.98;;;8.23;;
75698;SDS011;64313;51.018;13.742;2024-01-30T14:24:37;18.58;;;8.90;;
75698;SDS011;64313;51.018;13.742;2024-01-30T14:29:28;18.05;;;8.50;;
75698;SDS011;64313;51.018;13.742;2024-01-30T14:34:20;18.85;;;8.63;;
75698;SDS011;64313;51.018;13.742;2024-01-30T14:39:10;21.30;;;8.40;;
75698;SDS011;64313;51.018;13.742;2024-01-30T14:44:01;15.53;;;8.00;;
75698;SDS011;64313;51.018;13.742;2024-01-30T14:48:52;18.17;;;8.10;;
75698;SDS011;64313;51.018;13.742;2024-01-30T14:53:43;18.27;;;9.00;;
75698;SDS011;64313;51.018;13.742;2024-01-30T14:58:33;20.80;;;9.43;;
75698;SDS011;64313;51.018;13.742;2024-01-30T15:03:26;19.80;;;8.60;;
75698;SDS011;64313;51.018;13.742;2024-01-30T15:05:53;22.30;;;9.02;;
75698;SDS011;64313;51.018;13.742;2024-01-30T15:08:19;22.00;;;9.52;;
75698;SDS011;64313;51.018;13.742;2024-01-30T15:13:10;21.73;;;9.87;;
75698;SDS011;64313;51.018;13.742;2024-01-30T15:15:36;24.02;;;10.30;;
75698;SDS011;64313;51.018;13.742;2024-01-30T15:20:28;20.17;;;9.32;;
75698;SDS011;64313;51.018;13.742;2024-01-30T15:25:18;21.17;;;9.40;;
75698;SDS011;64313;51.018;13.742;2024-01-30T15:30:10;21.57;;;9.87;;
75698;SDS011;64313;51.018;13.742;2024-01-30T15:32:36;23.23;;;10.60;;
75698;SDS011;64313;51.018;13.742;2024-01-30T15:37:28;22.38;;;9.23;;
75698;SDS011;64313;51.018;13.742;2024-01-30T15:42:19;23.83;;;9.43;;
75698;SDS011;64313;51.018;13.742;2024-01-30T15:44:44;24.02;;;10.73;;
75698;SDS011;64313;51.018;13.742;2024-01-30T15:49:35;21.67;;;9.73;;
75698;SDS011;64313;51.018;13.742;2024-01-30T15:55:29;19.88;;;9.02;;
75698;SDS011;64313;51.018;13.742;2024-01-30T16:00:20;22.90;;;10.07;;
75698;SDS011;64313;51.018;13.742;2024-01-30T16:02:45;20.80;;;9.40;;
75698;SDS011;64313;51.018;13.742;2024-01-30T16:07:38;23.33;;;8.90;;
75698;SDS011;64313;51.018;13.742;2024-01-30T16:10:04;22.00;;;9.95;;
75698;SDS011;64313;51.018;13.742;2024-01-30T16:14:56;25.35;;;10.65;;
75698;SDS011;64313;51.018;13.742;2024-01-30T16:19:48;22.95;;;10.25;;
75698;SDS011;64313;51.018;13.742;2024-01-30T16:22:16;21.30;;;9.32;;
75698;SDS011;64313;51.018;13.742;2024-01-30T16:27:24;21.77;;;10.13;;
75698;SDS011;64313;51.018;13.742;2024-01-30T16:32:14;24.97;;;10.30;;
75698;SDS011;64313;51.018;13.742;2024-01-30T16:37:05;23.90;;;9.48;;
75698;SDS011;64313;51.018;13.742;2024-01-30T16:41:56;22.13;;;10.15;;
75698;SDS011;64313;51.018;13.742;2024-01-30T16:44:21;23.92;;;10.20;;
75698;SDS011;64313;51.018;13.742;2024-01-30T16:46:46;23.92;;;10.95;;
75698;SDS011;64313;51.018;13.742;2024-01-30T16:51:37;21.77;;;9.60;;
75698;SDS011;64313;51.018;13.742;2024-01-30T16:56:28;23.00;;;10.27;;